Time;durP1;ratioP1;P1;durP2;ratioP2;P2;SDS_P1;SDS_P2;PMS_P1;PMS_P2;Temp;Humidity;BMP_temperature;BMP_pressure;BME280_temperature;BME280_humidity;BME280_pressure;Samples;Min_cycle;Max_cycle;Signal;HPM_P1;HPM_P2
2022/10/04 00:01:40;;;;;;;12.02;6.30;;;12.20;99.90;;;;;;5025770;28;20471;-63
2022/10/04 00:04:10;;;;;;;15.23;6.10;;;12.00;99.90;;;;;;5026564;28;20129;-63
2022/10/04 00:06:42;;;;;;;14.57;6.43;;;12.00;99.90;;;;;;5020629;28;20046;-63
2022/10/04 00:09:17;;;;;;;14.75;6.13;;;12.00;99.90;;;;;;5006631;28;20050;-63
2022/10/04 00:11:45;;;;;;;11.05;6.10;;;12.10;99.90;;;;;;5006609;28;20053;-63
2022/10/04 00:14:23;;;;;;;11.02;5.88;;;12.10;99.90;;;;;;5005923;28;20547;-63
2022/10/04 00:16:50;;;;;;;14.48;6.07;;;12.00;99.90;;;;;;4989402;28;20049;-63
2022/10/04 00:19:18;;;;;;;10.20;6.47;;;12.10;99.90;;;;;;5006706;28;20125;-63
2022/10/04 00:22:11;;;;;;;13.50;6.90;;;12.10;99.90;;;;;;4989046;28;20070;-63
2022/10/04 00:24:57;;;;;;;15.25;7.00;;;12.20;99.90;;;;;;5007332;28;20042;-63
2022/10/04 00:27:25;;;;;;;13.15;6.90;;;11.90;99.90;;;;;;5006617;28;20057;-63
2022/10/04 00:30:03;;;;;;;12.38;6.50;;;11.90;99.90;;;;;;4989597;28;20050;-63
2022/10/04 00:32:28;;;;;;;13.38;6.88;;;11.90;99.90;;;;;;5006654;28;20045;-63
2022/10/04 00:34:55;;;;;;;13.25;7.15;;;12.00;99.90;;;;;;5007030;28;20061;-63
2022/10/04 00:37:24;;;;;;;11.38;7.03;;;11.90;99.90;;;;;;5007438;28;20049;-63
2022/10/04 00:40:15;;;;;;;16.48;7.35;;;12.00;99.90;;;;;;5007189;28;20108;-63
2022/10/04 00:42:43;;;;;;;14.98;7.38;;;11.90;99.90;;;;;;5006893;28;20100;-63
2022/10/04 00:45:47;;;;;;;11.25;7.47;;;11.90;99.90;;;;;;5005585;28;20065;-63
2022/10/04 00:48:35;;;;;;;15.30;7.57;;;12.00;99.90;;;;;;4986014;28;20413;-63
2022/10/04 00:51:23;;;;;;;17.38;7.95;;;12.00;99.90;;;;;;5007347;28;20056;-64
2022/10/04 00:54:03;;;;;;;14.48;7.53;;;11.80;99.90;;;;;;5006304;28;20050;-63
2022/10/04 00:56:55;;;;;;;16.55;7.60;;;11.80;99.90;;;;;;5006766;28;20045;-63
2022/10/04 00:59:20;;;;;;;15.38;7.70;;;11.90;99.90;;;;;;5006241;28;20104;-63
2022/10/04 01:01:50;;;;;;;16.25;8.35;;;11.80;99.90;;;;;;5005771;28;20528;-63
2022/10/04 01:04:27;;;;;;;19.02;8.50;;;11.80;99.90;;;;;;5005933;28;20112;-63
2022/10/04 01:06:56;;;;;;;15.38;8.50;;;11.90;99.90;;;;;;5000374;28;20103;-63
2022/10/04 01:09:24;;;;;;;26.77;9.10;;;11.80;99.90;;;;;;5006533;28;20092;-63
2022/10/04 01:12:01;;;;;;;16.67;8.68;;;11.80;99.90;;;;;;5006152;28;20519;-63
2022/10/04 01:14:41;;;;;;;16.20;8.27;;;11.80;99.90;;;;;;5006204;28;20052;-63
2022/10/04 01:17:07;;;;;;;18.27;8.18;;;11.90;99.90;;;;;;5005218;28;20041;-63
2022/10/04 01:19:33;;;;;;;17.92;9.30;;;11.80;99.90;;;;;;4988850;28;20050;-63
2022/10/04 01:22:13;;;;;;;15.57;8.77;;;11.80;99.90;;;;;;5005633;28;20084;-64
2022/10/04 01:24:43;;;;;;;15.50;8.10;;;11.80;99.90;;;;;;5005825;28;20136;-63
2022/10/04 01:27:38;;;;;;;14.88;9.43;;;11.90;99.90;;;;;;5005932;28;20081;-63
2022/10/04 01:30:08;;;;;;;16.98;9.63;;;11.90;99.90;;;;;;4977444;28;20058;-63
2022/10/04 01:32:36;;;;;;;18.80;9.60;;;12.00;99.90;;;;;;5006152;28;20124;-63
2022/10/04 01:35:02;;;;;;;17.05;9.50;;;11.80;99.90;;;;;;5006132;28;20608;-63
2022/10/04 01:37:28;;;;;;;16.27;9.07;;;11.90;99.90;;;;;;5006202;28;20037;-63
2022/10/04 01:39:54;;;;;;;16.10;9.65;;;11.80;99.90;;;;;;5006583;28;20423;-62
2022/10/04 01:42:28;;;;;;;18.40;9.57;;;12.00;99.90;;;;;;5005920;28;20436;-63
2022/10/04 01:45:00;;;;;;;15.23;9.80;;;11.80;99.90;;;;;;5005342;28;20038;-63
2022/10/04 01:47:41;;;;;;;18.58;10.00;;;11.80;99.90;;;;;;5005958;28;20060;-63
2022/10/04 01:50:22;;;;;;;21.77;10.18;;;11.80;99.90;;;;;;5005088;28;20042;-63
2022/10/04 01:53:00;;;;;;;25.10;10.60;;;11.80;99.90;;;;;;5006104;28;20099;-63
2022/10/04 01:55:30;;;;;;;19.60;10.02;;;11.90;99.90;;;;;;5004580;28;20049;-63
2022/10/04 01:58:36;;;;;;;15.07;9.98;;;11.80;99.90;;;;;;5005902;28;20596;-63
2022/10/04 02:01:10;;;;;;;16.15;10.52;;;11.90;99.90;;;;;;4987176;28;20057;-64
2022/10/04 02:03:44;;;;;;;17.88;10.45;;;11.80;99.90;;;;;;5005293;28;20124;-62
2022/10/04 02:06:12;;;;;;;18.47;10.23;;;11.90;99.90;;;;;;5012268;28;20342;-63
2022/10/04 02:08:44;;;;;;;16.92;10.13;;;11.80;99.90;;;;;;5008507;28;20042;-63
2022/10/04 02:11:19;;;;;;;15.77;10.52;;;11.90;99.90;;;;;;5056178;23;20050;-63
2022/10/04 02:13:47;;;;;;;15.55;9.93;;;12.10;99.90;;;;;;4968158;28;20058;-63
2022/10/04 02:16:13;;;;;;;17.42;10.20;;;12.00;99.90;;;;;;4983976;28;20106;-63
2022/10/04 02:18:42;;;;;;;16.92;10.32;;;11.90;99.90;;;;;;4951495;28;20049;-62
2022/10/04 02:21:10;;;;;;;17.35;9.38;;;12.00;99.90;;;;;;4985000;28;20046;-63
2022/10/04 02:23:38;;;;;;;20.65;10.65;;;12.00;99.90;;;;;;4985171;28;20046;-63
2022/10/04 02:26:08;;;;;;;19.77;10.45;;;12.00;99.90;;;;;;4985596;28;20459;-63
2022/10/04 02:28:35;;;;;;;18.67;10.57;;;11.90;99.90;;;;;;4984812;28;20099;-63
2022/10/04 02:33:49;;;;;;;18.35;10.32;;;12.00;99.90;;;;;;4984481;28;20109;-63
2022/10/04 02:36:16;;;;;;;19.38;10.85;;;11.90;99.90;;;;;;4985059;28;20046;-62
2022/10/04 02:39:08;;;;;;;19.40;10.20;;;11.80;99.90;;;;;;4985243;28;20088;-63
2022/10/04 02:41:43;;;;;;;20.48;10.65;;;11.90;99.90;;;;;;4967779;28;20109;-62
2022/10/04 02:44:17;;;;;;;20.60;10.57;;;12.10;99.90;;;;;;4983699;28;20057;-64
2022/10/04 02:47:04;;;;;;;17.20;10.70;;;11.90;99.90;;;;;;4983853;28;20669;-63
2022/10/04 02:49:36;;;;;;;15.93;10.82;;;12.00;99.90;;;;;;4985304;28;20382;-63
2022/10/04 02:52:15;;;;;;;21.63;10.85;;;12.10;99.90;;;;;;4984737;28;20893;-64
2022/10/04 02:55:01;;;;;;;19.33;10.55;;;12.00;99.90;;;;;;4951617;28;20362;-62
2022/10/04 02:57:28;;;;;;;18.58;11.02;;;12.00;99.90;;;;;;4985302;28;20046;-63
2022/10/04 03:00:09;;;;;;;15.90;10.38;;;12.00;99.90;;;;;;4984246;28;20136;-63
2022/10/04 03:02:35;;;;;;;19.83;10.95;;;12.10;99.90;;;;;;4983643;28;20046;-63
2022/10/04 03:05:09;;;;;;;18.45;10.60;;;11.90;99.90;;;;;;4982425;28;20066;-64
2022/10/04 03:07:37;;;;;;;20.05;11.45;;;12.00;99.90;;;;;;4973757;28;20050;-63
2022/10/04 03:10:09;;;;;;;20.45;11.60;;;12.00;99.90;;;;;;4963992;28;20113;-63
2022/10/04 03:12:36;;;;;;;20.17;10.77;;;11.90;99.90;;;;;;4964716;28;20744;-63
2022/10/04 03:15:02;;;;;;;17.48;11.20;;;11.80;99.90;;;;;;4964296;28;20074;-63
2022/10/04 03:17:28;;;;;;;18.83;11.10;;;11.80;99.90;;;;;;4966460;28;21995;-63
2022/10/04 03:19:56;;;;;;;21.38;11.93;;;11.90;99.90;;;;;;4984124;28;20050;-63
2022/10/04 03:22:22;;;;;;;18.80;11.02;;;11.90;99.90;;;;;;4984342;28;20092;-63
2022/10/04 03:24:53;;;;;;;18.95;10.82;;;11.60;99.90;;;;;;4984436;28;20761;-63
2022/10/04 03:27:23;;;;;;;20.92;11.93;;;11.50;99.90;;;;;;4983894;28;20046;-63
2022/10/04 03:29:49;;;;;;;18.92;11.45;;;11.50;99.90;;;;;;4982674;28;20089;-63
2022/10/04 03:32:18;;;;;;;19.75;11.70;;;11.50;99.90;;;;;;4983846;28;20046;-63
2022/10/04 03:35:27;;;;;;;16.15;10.40;;;11.50;99.90;;;;;;4983325;28;20392;-63
2022/10/04 03:37:55;;;;;;;17.67;11.30;;;11.50;99.90;;;;;;4946859;28;20051;-62
2022/10/04 03:40:26;;;;;;;20.40;10.77;;;11.60;99.90;;;;;;4966420;28;20551;-63
2022/10/04 03:42:52;;;;;;;15.85;11.13;;;11.50;99.90;;;;;;4983584;28;20056;-62
2022/10/04 03:45:20;;;;;;;22.40;11.50;;;11.60;99.90;;;;;;4982743;28;20392;-62
2022/10/04 03:47:48;;;;;;;21.23;11.32;;;11.50;99.90;;;;;;4984036;28;20057;-63
2022/10/04 03:50:32;;;;;;;14.95;11.52;;;11.60;99.90;;;;;;4984039;28;20437;-62
2022/10/04 03:53:03;;;;;;;19.90;11.82;;;11.50;99.90;;;;;;4984227;28;20226;-63
2022/10/04 03:55:43;;;;;;;19.70;12.88;;;11.60;99.90;;;;;;4984371;28;20057;-63
2022/10/04 03:58:13;;;;;;;20.15;12.40;;;11.50;99.90;;;;;;4983017;28;20477;-62
2022/10/04 04:00:44;;;;;;;21.70;12.25;;;11.40;99.90;;;;;;4983474;28;20133;-63
2022/10/04 04:03:17;;;;;;;18.08;11.70;;;11.40;99.90;;;;;;4983096;28;20122;-63
2022/10/04 04:05:49;;;;;;;22.98;13.05;;;11.40;99.90;;;;;;4977911;28;20050;-63
2022/10/04 04:08:33;;;;;;;20.55;12.25;;;11.50;99.90;;;;;;4971080;28;20054;-62
2022/10/04 04:11:02;;;;;;;18.30;12.43;;;11.40;99.90;;;;;;4964855;28;20162;-63
2022/10/04 04:13:49;;;;;;;18.70;11.90;;;11.40;99.90;;;;;;4926538;29;20063;-62
2022/10/04 04:16:17;;;;;;;20.23;11.65;;;11.50;99.90;;;;;;4925248;29;20047;-62
2022/10/04 04:18:45;;;;;;;20.45;12.40;;;11.30;99.90;;;;;;4926053;29;20063;-63
2022/10/04 04:21:17;;;;;;;23.55;13.00;;;11.30;99.90;;;;;;4925711;29;20066;-63
2022/10/04 04:24:06;;;;;;;19.38;12.32;;;11.40;99.90;;;;;;4925493;29;20047;-62
2022/10/04 04:26:35;;;;;;;21.98;12.80;;;11.40;99.90;;;;;;4925593;29;20051;-64
2022/10/04 04:29:05;;;;;;;21.20;13.07;;;11.30;99.90;;;;;;4939213;29;20043;-63
2022/10/04 04:32:11;;;;;;;20.15;11.93;;;11.20;99.90;;;;;;4924537;29;20059;-63
2022/10/04 04:34:52;;;;;;;18.70;12.05;;;11.30;99.90;;;;;;4912925;29;20509;-62
2022/10/04 04:37:19;;;;;;;20.92;12.77;;;11.20;99.90;;;;;;4925285;29;20047;-63
2022/10/04 04:39:50;;;;;;;19.50;12.43;;;11.30;99.90;;;;;;4926614;29;20028;-63
2022/10/04 04:42:20;;;;;;;16.58;12.90;;;11.20;99.90;;;;;;4929596;29;20122;-63
2022/10/04 04:44:51;;;;;;;19.83;12.40;;;11.20;99.90;;;;;;4928401;29;20075;-63
2022/10/04 04:47:39;;;;;;;18.00;12.95;;;11.30;99.90;;;;;;4928906;29;20127;-63
2022/10/04 04:50:11;;;;;;;17.77;11.98;;;11.30;99.90;;;;;;4929466;29;20048;-63
2022/10/04 04:52:37;;;;;;;16.80;12.10;;;11.40;99.90;;;;;;4928872;29;20048;-63
2022/10/04 04:55:05;;;;;;;16.17;11.63;;;11.40;99.90;;;;;;4928992;29;20521;-63
2022/10/04 04:57:32;;;;;;;21.35;12.27;;;11.40;99.90;;;;;;4929194;29;20052;-64
2022/10/04 05:00:00;;;;;;;18.55;12.32;;;11.30;99.90;;;;;;4928217;29;20043;-63
2022/10/04 05:02:37;;;;;;;17.20;12.07;;;11.30;99.90;;;;;;4929250;29;20561;-62
2022/10/04 05:05:26;;;;;;;18.38;12.50;;;11.40;99.90;;;;;;4930300;29;20067;-63
2022/10/04 05:08:12;;;;;;;20.92;12.73;;;11.30;99.90;;;;;;4935955;29;20052;-63
2022/10/04 05:10:43;;;;;;;20.70;13.45;;;11.30;99.90;;;;;;4928528;29;20048;-63
2022/10/04 05:13:11;;;;;;;19.08;12.80;;;11.40;99.90;;;;;;4961745;28;20066;-62
2022/10/04 05:15:39;;;;;;;20.48;13.05;;;11.40;99.90;;;;;;4966821;28;20482;-63
2022/10/04 05:18:27;;;;;;;19.77;13.10;;;11.20;99.90;;;;;;4966346;28;20180;-62
2022/10/04 05:20:54;;;;;;;16.65;13.07;;;11.20;99.90;;;;;;4966837;28;20051;-63
2022/10/04 05:23:20;;;;;;;21.33;13.98;;;11.20;99.90;;;;;;4966053;28;20113;-62
2022/10/04 05:25:47;;;;;;;20.42;14.02;;;11.20;99.90;;;;;;4966267;28;20054;-63
2022/10/04 05:28:17;;;;;;;20.52;14.07;;;11.10;99.90;;;;;;4966938;28;20379;-62
2022/10/04 05:31:04;;;;;;;19.92;13.88;;;11.10;99.90;;;;;;4948603;28;20127;-62
2022/10/04 05:33:39;;;;;;;20.27;14.45;;;11.20;99.90;;;;;;4967878;28;20401;-63
2022/10/04 05:36:12;;;;;;;23.55;14.55;;;11.10;99.90;;;;;;4966474;28;20050;-64
2022/10/04 05:38:43;;;;;;;23.92;14.85;;;11.10;99.90;;;;;;4967649;28;20093;-63
2022/10/04 05:41:45;;;;;;;20.85;14.77;;;11.10;99.90;;;;;;4966893;28;20054;-63
2022/10/04 05:44:27;;;;;;;27.10;15.95;;;10.90;99.90;;;;;;4943858;28;20055;-63
2022/10/04 05:46:58;;;;;;;21.17;15.70;;;10.90;99.90;;;;;;4966758;28;20045;-63
2022/10/04 05:49:27;;;;;;;27.73;16.35;;;10.90;99.90;;;;;;4966480;28;20054;-63
2022/10/04 05:51:58;;;;;;;24.30;16.48;;;11.00;99.90;;;;;;4965093;28;20054;-64
2022/10/04 05:54:26;;;;;;;23.33;15.50;;;11.00;99.90;;;;;;4966135;28;20039;-63
2022/10/04 05:57:14;;;;;;;22.52;16.23;;;11.00;99.90;;;;;;4965410;28;20047;-63
2022/10/04 06:00:08;;;;;;;23.48;16.77;;;10.80;99.90;;;;;;4966537;28;20047;-63
2022/10/04 06:03:06;;;;;;;26.20;17.38;;;10.90;99.90;;;;;;4948956;28;20054;-63
2022/10/04 06:05:53;;;;;;;25.25;16.65;;;10.80;99.90;;;;;;4951254;28;20505;-63
2022/10/04 06:08:33;;;;;;;21.23;16.42;;;10.90;99.90;;;;;;4980000;28;20125;-62
2022/10/04 06:11:18;;;;;;;27.27;16.42;;;11.00;99.90;;;;;;4986637;28;20056;-63
2022/10/04 06:14:09;;;;;;;22.65;16.17;;;10.80;99.90;;;;;;4984907;28;20060;-63
2022/10/04 06:17:03;;;;;;;21.95;15.55;;;10.80;99.90;;;;;;4984942;28;20046;-63
2022/10/04 06:19:52;;;;;;;24.88;15.82;;;11.00;99.90;;;;;;4968235;28;20445;-62
2022/10/04 06:22:22;;;;;;;22.67;16.58;;;10.80;99.90;;;;;;4985081;28;20142;-63
2022/10/04 06:24:53;;;;;;;23.92;16.15;;;10.80;99.90;;;;;;4985365;28;20757;-62
2022/10/04 06:27:39;;;;;;;22.75;16.42;;;10.80;99.90;;;;;;4985473;28;20101;-63
2022/10/04 06:30:14;;;;;;;21.95;16.38;;;11.00;99.90;;;;;;4984616;28;20054;-63
2022/10/04 06:33:15;;;;;;;19.48;15.98;;;10.90;99.90;;;;;;4985027;28;20043;-63
2022/10/04 06:36:02;;;;;;;23.33;17.30;;;10.90;99.90;;;;;;4984468;28;20128;-63
2022/10/04 06:38:31;;;;;;;24.02;16.27;;;10.90;99.90;;;;;;4985568;28;20050;-63
2022/10/04 06:41:06;;;;;;;25.70;17.10;;;10.90;99.90;;;;;;4984633;28;20046;-63
2022/10/04 06:43:37;;;;;;;23.35;16.48;;;11.10;99.90;;;;;;4985071;28;20105;-63
2022/10/04 06:46:11;;;;;;;27.17;18.17;;;11.10;99.90;;;;;;4985660;28;20051;-64
2022/10/04 06:48:42;;;;;;;21.25;16.05;;;11.10;99.90;;;;;;4984051;28;20050;-63
2022/10/04 06:51:22;;;;;;;21.90;16.92;;;11.20;99.90;;;;;;4985170;28;20050;-62
2022/10/04 06:53:50;;;;;;;21.10;16.30;;;11.00;99.90;;;;;;4984736;28;20051;-63
2022/10/04 06:57:13;;;;;;;23.77;16.48;;;11.00;99.90;;;;;;4984455;28;20053;-63
2022/10/04 07:00:12;;;;;;;25.48;16.00;;;11.00;99.90;;;;;;4923560;29;20063;-63
2022/10/04 07:03:08;;;;;;;22.27;15.70;;;11.20;99.90;;;;;;4908020;29;20054;-63
2022/10/04 07:05:59;;;;;;;20.20;15.98;;;11.10;99.90;;;;;;4978730;28;20113;-63
2022/10/04 07:08:46;;;;;;;19.83;15.88;;;11.10;99.90;;;;;;4969975;28;20054;-62
2022/10/04 07:12:16;;;;;;;22.15;15.90;;;11.40;99.90;;;;;;4965043;28;20055;-63
2022/10/04 07:14:52;;;;;;;23.05;16.60;;;11.50;99.90;;;;;;4904172;29;20063;-62
2022/10/04 07:17:26;;;;;;;19.38;14.77;;;11.40;99.90;;;;;;4904424;29;20096;-63
2022/10/04 07:19:53;;;;;;;19.17;14.27;;;11.70;99.90;;;;;;4941120;28;20063;-63
2022/10/04 07:22:43;;;;;;;21.98;15.05;;;11.70;99.90;;;;;;4964998;28;20129;-63
2022/10/04 07:25:21;;;;;;;18.38;14.18;;;11.90;99.90;;;;;;4964748;28;20050;-62
2022/10/04 07:31:08;;;;;;;17.60;14.07;;;12.00;99.90;;;;;;4965428;28;20101;-63
2022/10/04 07:33:49;;;;;;;18.38;13.63;;;12.20;99.90;;;;;;4947849;28;20042;-63
2022/10/04 07:36:28;;;;;;;20.33;14.55;;;12.20;99.90;;;;;;4964863;28;20126;-63
2022/10/04 07:38:59;;;;;;;15.45;13.50;;;12.30;99.90;;;;;;4947142;28;20566;-63
2022/10/04 07:41:36;;;;;;;16.95;12.77;;;12.40;99.90;;;;;;4964898;28;20410;-63
2022/10/04 07:44:15;;;;;;;18.02;13.18;;;12.30;99.90;;;;;;4963579;28;20126;-64
2022/10/04 07:47:02;;;;;;;15.45;12.20;;;12.40;99.90;;;;;;4965310;28;20050;-63
2022/10/04 07:49:28;;;;;;;16.60;12.10;;;12.50;99.90;;;;;;4965382;28;20099;-63
2022/10/04 07:52:18;;;;;;;16.42;11.82;;;12.60;99.90;;;;;;4964235;28;20047;-63
2022/10/04 07:55:00;;;;;;;15.15;11.45;;;12.60;99.90;;;;;;4946790;28;20089;-63
2022/10/04 07:57:51;;;;;;;15.38;10.70;;;12.60;99.90;;;;;;4964727;28;20130;-63
2022/10/04 08:00:18;;;;;;;13.90;10.68;;;12.60;99.90;;;;;;4963663;28;20046;-63
2022/10/04 08:02:44;;;;;;;12.40;10.20;;;12.70;99.90;;;;;;4964940;28;20101;-63
2022/10/04 08:05:22;;;;;;;18.38;10.45;;;12.80;99.90;;;;;;4966079;28;20038;-62
2022/10/04 08:08:28;;;;;;;16.40;10.43;;;12.90;99.90;;;;;;4973815;28;20105;-63
2022/10/04 08:11:18;;;;;;;14.82;10.13;;;13.10;99.90;;;;;;4964208;28;20051;-63
2022/10/04 08:14:28;;;;;;;16.55;9.48;;;13.30;99.90;;;;;;4963142;28;20062;-63
2022/10/04 08:17:21;;;;;;;13.63;8.32;;;13.50;99.90;;;;;;4907651;29;20059;-63
2022/10/04 08:19:50;;;;;;;12.82;8.27;;;13.60;99.90;;;;;;4966905;28;20051;-63
2022/10/04 08:22:53;;;;;;;13.75;8.73;;;13.70;99.90;;;;;;4967591;28;20130;-63
2022/10/04 08:26:03;;;;;;;13.07;9.05;;;13.80;99.90;;;;;;4967706;28;20429;-63
2022/10/04 08:31:47;;;;;;;15.43;10.18;;;13.90;99.90;;;;;;4967498;28;20074;-63
2022/10/04 08:34:43;;;;;;;18.35;10.30;;;13.90;99.90;;;;;;4966370;28;20054;-63
2022/10/04 08:37:31;;;;;;;14.40;9.48;;;13.90;99.90;;;;;;4967036;28;20043;-63
2022/10/04 08:40:47;;;;;;;16.08;9.20;;;13.80;99.90;;;;;;4968099;28;20053;-63
2022/10/04 08:43:27;;;;;;;19.13;10.82;;;13.80;99.90;;;;;;4967245;28;20120;-63
2022/10/04 08:45:58;;;;;;;16.42;11.05;;;13.70;99.90;;;;;;4967668;28;20605;-63
2022/10/04 08:49:02;;;;;;;14.48;10.75;;;13.80;99.90;;;;;;4967245;28;20050;-63
2022/10/04 08:51:42;;;;;;;16.55;11.05;;;13.70;99.90;;;;;;4967823;28;20406;-64
2022/10/04 08:54:26;;;;;;;15.63;9.73;;;13.60;99.90;;;;;;4966795;28;20039;-63
2022/10/04 08:57:27;;;;;;;14.35;10.82;;;13.70;99.90;;;;;;4967587;28;20062;-63
2022/10/04 09:00:12;;;;;;;16.45;11.05;;;13.60;99.90;;;;;;4967222;28;20047;-65
2022/10/04 09:02:50;;;;;;;;;;;13.80;99.90;;;;;;4964299;28;20047;-63
2022/10/04 09:05:33;;;;;;;14.35;9.82;;;14.20;99.90;;;;;;4963736;28;19922;-63
2022/10/04 09:08:31;;;;;;;14.65;10.38;;;14.80;99.90;;;;;;4977394;28;20081;-63
2022/10/04 09:11:16;;;;;;;18.00;9.85;;;15.00;99.90;;;;;;4977657;28;20050;-63
2022/10/04 09:14:07;;;;;;;16.23;9.27;;;15.10;99.90;;;;;;4984753;28;20208;-63
2022/10/04 09:16:46;;;;;;;12.18;8.73;;;15.70;99.90;;;;;;4948544;28;20050;-64
2022/10/04 09:19:39;;;;;;;13.18;9.50;;;15.80;99.90;;;;;;4966033;28;20093;-64
2022/10/04 09:22:34;;;;;;;11.50;7.53;;;15.90;99.90;;;;;;4984424;28;20055;-63
2022/10/04 09:25:21;;;;;;;12.85;6.82;;;16.00;99.90;;;;;;4967774;28;20374;-64
2022/10/04 09:28:11;;;;;;;12.80;6.93;;;16.40;99.90;;;;;;4969531;28;20425;-63
2022/10/04 09:30:54;;;;;;;11.05;6.68;;;16.60;99.90;;;;;;4948275;28;20086;-64
2022/10/04 09:33:30;;;;;;;11.60;5.82;;;16.60;99.90;;;;;;4966867;28;20047;-64
2022/10/04 09:36:18;;;;;;;11.27;6.43;;;16.30;99.90;;;;;;4977893;28;20133;-63
2022/10/04 09:38:58;;;;;;;9.63;5.82;;;16.80;99.90;;;;;;4985937;28;20058;-64
2022/10/04 09:41:42;;;;;;;10.27;5.88;;;16.80;99.90;;;;;;4986024;28;20054;-64
2022/10/04 09:44:45;;;;;;;12.65;6.70;;;17.10;99.90;;;;;;4968640;28;20685;-64
2022/10/04 09:47:42;;;;;;;8.48;4.00;;;17.10;99.90;;;;;;4975716;28;20051;-64
2022/10/04 09:50:40;;;;;;;8.07;5.18;;;16.80;99.90;;;;;;4966561;28;20515;-64
2022/10/04 09:53:36;;;;;;;10.45;4.25;;;16.90;99.90;;;;;;4963331;28;20058;-64
2022/10/04 09:56:39;;;;;;;8.50;4.68;;;16.70;99.90;;;;;;4966073;28;20050;-65
2022/10/04 09:59:31;;;;;;;9.20;4.40;;;16.90;99.90;;;;;;4965030;28;20715;-64
2022/10/04 10:02:13;;;;;;;6.82;4.07;;;16.90;99.90;;;;;;4966860;28;20470;-64
2022/10/04 10:05:17;;;;;;;8.85;4.38;;;16.50;99.90;;;;;;4966059;28;20042;-64
2022/10/04 10:08:10;;;;;;;11.63;5.85;;;16.50;99.90;;;;;;4914692;29;20266;-63
2022/10/04 10:14:02;;;;;;;7.68;4.55;;;16.80;99.90;;;;;;4958117;28;20076;-64
2022/10/04 10:17:14;;;;;;;8.80;4.50;;;17.20;99.90;;;;;;4943984;28;20125;-64
2022/10/04 10:19:59;;;;;;;9.35;5.25;;;16.70;99.90;;;;;;4984058;28;20057;-64
2022/10/04 10:23:02;;;;;;;12.35;5.25;;;16.90;99.90;;;;;;4966890;28;20042;-64
2022/10/04 10:26:10;;;;;;;14.07;5.57;;;17.00;99.90;;;;;;4886776;29;20060;-64
2022/10/04 10:29:13;;;;;;;10.70;5.13;;;16.80;99.90;;;;;;4984301;28;20054;-64
2022/10/04 10:31:49;;;;;;;10.30;4.90;;;16.90;99.90;;;;;;4984446;28;20042;-64
2022/10/04 10:34:51;;;;;;;9.52;5.53;;;17.00;99.90;;;;;;4967194;28;20058;-64
2022/10/04 10:37:45;;;;;;;7.78;3.85;;;16.90;99.90;;;;;;4983557;28;20046;-63
2022/10/04 10:40:17;;;;;;;13.15;4.88;;;17.00;99.90;;;;;;4979537;28;20058;-65
2022/10/04 10:43:04;;;;;;;5.32;3.55;;;17.50;99.90;;;;;;4985312;28;20452;-64
2022/10/04 10:45:36;;;;;;;6.47;3.78;;;17.30;99.90;;;;;;4967113;28;20046;-64
2022/10/04 10:48:29;;;;;;;8.52;4.15;;;17.20;99.90;;;;;;4966143;28;20535;-64
2022/10/04 10:51:21;;;;;;;9.55;4.32;;;17.20;99.90;;;;;;4984070;28;20446;-64
2022/10/04 10:54:12;;;;;;;9.98;4.90;;;17.40;99.90;;;;;;4983808;28;20493;-64
2022/10/04 10:56:38;;;;;;;8.45;4.90;;;17.70;99.90;;;;;;4984471;28;20158;-64
2022/10/04 10:59:24;;;;;;;9.02;5.10;;;17.70;99.90;;;;;;4983253;28;20490;-64
2022/10/04 11:02:14;;;;;;;8.48;4.95;;;17.70;99.90;;;;;;4984324;28;20757;-63
2022/10/04 11:04:50;;;;;;;6.13;3.90;;;17.70;99.90;;;;;;4982638;28;20053;-63
2022/10/04 11:07:44;;;;;;;7.07;4.47;;;17.60;99.90;;;;;;4973834;28;20088;-64
2022/10/04 11:10:34;;;;;;;10.13;4.75;;;17.70;99.90;;;;;;4983708;28;20086;-65
2022/10/04 11:13:20;;;;;;;10.52;4.78;;;17.40;99.90;;;;;;4965892;28;20082;-64
2022/10/04 11:16:08;;;;;;;8.95;4.18;;;17.60;99.90;;;;;;4984319;28;20129;-64
2022/10/04 11:18:57;;;;;;;9.35;4.72;;;17.40;99.90;;;;;;4966787;28;20050;-64
2022/10/04 11:22:06;;;;;;;6.00;3.58;;;17.50;99.90;;;;;;4984233;28;20054;-64
2022/10/04 11:24:50;;;;;;;9.77;4.80;;;17.20;99.90;;;;;;4984822;28;20050;-64
2022/10/04 11:27:16;;;;;;;10.18;4.40;;;17.60;99.90;;;;;;4984166;28;20089;-64
2022/10/04 11:30:14;;;;;;;7.50;4.03;;;17.70;99.90;;;;;;4966364;28;20046;-64
2022/10/04 11:32:51;;;;;;;10.32;5.38;;;17.20;99.90;;;;;;4941125;28;20117;-62
2022/10/04 11:35:26;;;;;;;11.00;5.32;;;17.50;99.90;;;;;;4983964;28;20140;-61
2022/10/04 11:38:01;;;;;;;;;;;17.80;99.90;;;;;;4984212;28;20047;-62
2022/10/04 11:40:56;;;;;;;7.35;3.60;;;17.80;99.90;;;;;;4984885;28;19969;-63
2022/10/04 11:43:25;;;;;;;6.22;3.08;;;17.90;99.90;;;;;;4982962;28;20090;-64
2022/10/04 11:46:32;;;;;;;8.52;4.40;;;17.90;99.90;;;;;;4983751;28;20984;-65
2022/10/04 11:49:09;;;;;;;5.95;3.53;;;17.70;99.90;;;;;;4971578;28;20058;-66
2022/10/04 11:52:16;;;;;;;10.82;4.80;;;17.80;99.90;;;;;;4983310;28;20125;-67
2022/10/04 11:55:08;;;;;;;4.97;2.83;;;17.90;99.90;;;;;;4982925;28;20050;-66
2022/10/04 11:57:36;;;;;;;11.23;3.10;;;18.10;99.90;;;;;;4966622;28;20042;-66
2022/10/04 12:00:16;;;;;;;8.90;4.03;;;17.70;99.90;;;;;;4965370;28;20054;-66
2022/10/04 12:03:14;;;;;;;9.02;4.38;;;17.70;99.90;;;;;;4983742;28;20046;-66
2022/10/04 12:06:14;;;;;;;8.55;4.60;;;17.70;99.90;;;;;;4967769;28;20054;-66
2022/10/04 12:09:03;;;;;;;9.35;4.30;;;17.80;99.90;;;;;;4966673;28;20401;-66
2022/10/04 12:15:29;;;;;;;6.82;3.33;;;17.90;99.90;;;;;;4963721;28;20093;-66
2022/10/04 12:18:11;;;;;;;9.38;4.32;;;17.50;99.90;;;;;;4941994;28;20086;-66
2022/10/04 12:21:20;;;;;;;9.05;4.07;;;18.00;99.90;;;;;;4962901;28;20061;-66
2022/10/04 12:24:13;;;;;;;8.93;4.70;;;17.70;99.90;;;;;;4963875;28;20039;-69
2022/10/04 12:26:45;;;;;;;9.20;4.43;;;17.90;99.90;;;;;;4963960;28;20117;-63
2022/10/04 12:29:48;;;;;;;10.25;5.57;;;18.30;99.90;;;;;;4961398;28;20050;-65
2022/10/04 12:32:41;;;;;;;7.10;4.40;;;18.30;99.90;;;;;;4962433;28;20054;-65
2022/10/04 12:35:21;;;;;;;8.70;4.82;;;18.10;99.90;;;;;;4945995;28;20379;-65
2022/10/04 12:38:08;;;;;;;10.90;5.57;;;18.20;99.90;;;;;;4963189;28;20046;-67
2022/10/04 12:40:54;;;;;;;8.52;4.80;;;18.40;99.90;;;;;;4963507;28;20047;-66
2022/10/04 12:44:02;;;;;;;6.22;3.90;;;18.40;99.90;;;;;;4961796;28;20074;-66
2022/10/04 12:47:11;;;;;;;7.15;3.90;;;17.90;99.90;;;;;;4963411;28;20047;-65
2022/10/04 12:50:00;;;;;;;8.38;4.38;;;17.90;99.90;;;;;;4945929;28;20047;-65
2022/10/04 12:52:32;;;;;;;5.97;2.53;;;18.00;99.90;;;;;;4919075;28;20109;-64
2022/10/04 12:55:09;;;;;;;8.63;4.43;;;17.70;99.90;;;;;;4946777;28;20523;-64
2022/10/04 12:57:47;;;;;;;8.30;3.75;;;18.00;99.90;;;;;;4973982;28;20042;-65
2022/10/04 13:00:18;;;;;;;9.27;3.20;;;18.00;99.90;;;;;;4983089;28;20140;-65
2022/10/04 13:03:08;;;;;;;6.13;3.38;;;18.20;99.90;;;;;;4986742;28;20481;-65
2022/10/04 13:05:40;;;;;;;8.85;3.50;;;18.50;99.90;;;;;;4968804;28;20043;-65
2022/10/04 13:08:34;;;;;;;6.53;3.50;;;18.60;99.90;;;;;;4957126;28;20054;-65
2022/10/04 13:11:24;;;;;;;6.00;2.97;;;18.60;99.90;;;;;;4967353;28;20082;-65
2022/10/04 13:14:02;;;;;;;7.03;3.35;;;18.60;99.90;;;;;;4965689;28;20132;-65
2022/10/04 13:16:47;;;;;;;5.25;2.10;;;18.70;99.90;;;;;;4949805;28;20050;-65
2022/10/04 13:19:51;;;;;;;8.20;3.58;;;18.50;99.90;;;;;;4966103;28;20055;-65
2022/10/04 13:22:27;;;;;;;8.60;3.95;;;18.50;99.90;;;;;;4948655;28;20504;-65
2022/10/04 13:25:24;;;;;;;4.88;2.70;;;18.50;99.90;;;;;;4967185;28;20402;-65
2022/10/04 13:28:01;;;;;;;6.25;2.80;;;18.40;99.90;;;;;;4948416;28;20226;-65
2022/10/04 13:30:52;;;;;;;8.60;2.95;;;18.40;99.90;;;;;;4949846;28;20049;-66
2022/10/04 13:33:31;;;;;;;6.80;3.97;;;18.50;99.90;;;;;;4980973;28;20053;-65
2022/10/04 13:36:21;;;;;;;7.93;3.72;;;18.40;99.90;;;;;;4986356;28;20043;-65
2022/10/04 13:39:25;;;;;;;6.60;3.65;;;18.50;99.90;;;;;;4985890;28;20046;-65
2022/10/04 13:42:16;;;;;;;8.07;3.78;;;18.60;99.90;;;;;;4978608;28;20058;-65
2022/10/04 13:44:53;;;;;;;7.78;3.67;;;18.40;99.90;;;;;;4967873;28;20473;-65
2022/10/04 13:47:22;;;;;;;6.25;3.22;;;18.40;99.90;;;;;;4985995;28;20047;-65
2022/10/04 13:50:16;;;;;;;8.43;3.38;;;18.50;99.90;;;;;;4986499;28;20058;-65
2022/10/04 13:58:54;;;;;;;7.55;3.50;;;18.40;99.90;;;;;;4970223;28;20069;-65
2022/10/04 14:01:35;;;;;;;9.18;4.53;;;18.40;99.90;;;;;;4967869;28;20042;-65
2022/10/04 14:04:25;;;;;;;5.32;2.97;;;18.20;99.90;;;;;;4985169;28;20046;-65
2022/10/04 14:07:17;;;;;;;6.45;2.72;;;18.20;99.90;;;;;;4977780;28;20046;-65
2022/10/04 14:10:21;;;;;;;6.97;3.38;;;18.10;99.90;;;;;;4966392;28;20230;-64